Time;durP1;ratioP1;P1;durP2;ratioP2;P2;SDS_P1;SDS_P2;PMS_P1;PMS_P2;Temp;Humidity;BMP_temperature;BMP_pressure;BME280_temperature;BME280_humidity;BME280_pressure;Samples;Min_cycle;Max_cycle;Signal;HPM_P1;HPM_P2
2023/04/09 00:01:44;;;;;;;15.63;11.48;;;;;;;7.62;70.18;97315.03;5053802;28;20052;-76
2023/04/09 00:04:11;;;;;;;13.63;11.23;;;;;;;7.60;69.68;97320.38;5053881;28;20087;-77
2023/04/09 00:06:39;;;;;;;12.60;9.68;;;;;;;7.59;69.60;97312.75;5053867;28;20567;-76
2023/04/09 00:09:06;;;;;;;13.52;10.30;;;;;;;7.55;69.96;97311.41;5053820;28;20464;-76
2023/04/09 00:11:35;;;;;;;11.43;8.77;;;;;;;7.54;69.57;97320.13;5053571;28;20420;-76
2023/04/09 00:14:03;;;;;;;12.13;9.30;;;;;;;7.53;69.11;97308.94;5053779;28;20056;-77
2023/04/09 00:16:30;;;;;;;11.38;8.85;;;;;;;7.52;68.59;97311.66;5053435;28;20496;-77
2023/04/09 00:18:58;;;;;;;10.15;8.00;;;;;;;7.49;68.85;97312.78;5053617;28;20489;-77
2023/04/09 00:21:25;;;;;;;12.00;9.98;;;;;;;7.50;68.79;97309.22;5053569;28;20057;-77
2023/04/09 00:23:53;;;;;;;11.35;9.35;;;;;;;7.51;68.42;97312.63;5053080;28;20053;-77
2023/04/09 00:26:21;;;;;;;14.05;10.23;;;;;;;7.49;68.47;97306.78;5053595;28;20045;-76
2023/04/09 00:28:50;;;;;;;10.63;8.80;;;;;;;7.47;68.92;97309.50;5053664;28;20049;-77
2023/04/09 00:31:18;;;;;;;12.20;9.15;;;;;;;7.48;68.84;97312.91;5053283;28;20059;-77
2023/04/09 00:33:47;;;;;;;12.77;9.45;;;;;;;7.49;69.07;97311.97;5052998;28;20131;-76
2023/04/09 00:36:15;;;;;;;11.10;8.68;;;;;;;7.48;68.74;97315.50;5053094;28;20508;-77
2023/04/09 00:38:42;;;;;;;10.50;8.60;;;;;;;7.45;69.29;97308.84;5053183;28;20052;-77
2023/04/09 00:41:10;;;;;;;11.52;9.00;;;;;;;7.45;69.07;97314.03;5053173;28;20063;-77
2023/04/09 00:43:37;;;;;;;11.20;9.73;;;;;;;7.46;68.84;97304.47;5053304;28;20049;-77
2023/04/09 00:46:06;;;;;;;10.90;8.82;;;;;;;7.46;69.05;97299.28;5052945;28;20496;-77
2023/04/09 00:48:34;;;;;;;10.68;8.82;;;;;;;7.46;69.25;97307.06;5052821;28;20514;-77
2023/04/09 00:51:02;;;;;;;13.77;9.75;;;;;;;7.43;69.46;97305.56;5052584;28;20052;-77
2023/04/09 00:53:29;;;;;;;11.93;9.48;;;;;;;7.42;69.46;97312.53;5052595;28;20052;-77
2023/04/09 00:55:58;;;;;;;12.23;9.48;;;;;;;7.41;69.30;97321.31;5053037;28;20048;-77
2023/04/09 00:58:26;;;;;;;12.98;9.95;;;;;;;7.39;69.40;97317.19;5052890;28;20052;-77
2023/04/09 01:00:53;;;;;;;13.02;10.10;;;;;;;7.39;69.65;97312.84;5052838;28;20061;-77
2023/04/09 01:03:22;;;;;;;10.07;8.98;;;;;;;7.39;69.63;97319.78;5052256;28;20048;-77
2023/04/09 01:05:59;;;;;;;11.18;8.80;;;;;;;7.39;69.87;97323.22;5053154;28;20099;-77
2023/04/09 01:08:32;;;;;;;10.23;8.95;;;;;;;7.38;69.76;97325.94;5052573;28;20555;-77
2023/04/09 01:11:10;;;;;;;11.32;8.55;;;;;;;7.37;70.26;97324.34;5052584;28;20084;-77
2023/04/09 01:13:43;;;;;;;11.13;8.60;;;;;;;7.37;69.67;97319.94;5052894;28;20060;-77
2023/04/09 01:16:13;;;;;;;11.57;8.60;;;;;;;7.37;69.23;97319.94;5052789;28;20063;-77
2023/04/09 01:18:48;;;;;;;11.43;9.23;;;;;;;7.35;69.68;97316.69;5052490;28;20087;-77
2023/04/09 01:21:20;;;;;;;11.63;8.93;;;;;;;7.32;69.85;97311.75;5052197;28;20067;-77
2023/04/09 01:23:57;;;;;;;11.45;9.02;;;;;;;7.29;69.75;97306.88;5052394;28;20057;-77
2023/04/09 01:26:40;;;;;;;10.82;8.63;;;;;;;7.26;69.88;97312.34;5052487;28;20045;-77
2023/04/09 01:29:10;;;;;;;11.77;9.18;;;;;;;7.23;69.63;97303.06;5052255;28;20041;-77
2023/04/09 01:31:39;;;;;;;10.63;8.15;;;;;;;7.22;69.76;97305.81;5052242;28;20424;-77
2023/04/09 01:34:09;;;;;;;10.07;8.07;;;;;;;7.24;69.77;97306.50;5052193;28;20056;-77
2023/04/09 01:36:40;;;;;;;10.63;8.98;;;;;;;7.25;69.65;97300.31;5052284;28;20424;-77
2023/04/09 01:39:08;;;;;;;10.68;7.93;;;;;;;7.26;69.55;97304.56;5052336;28;20139;-77
2023/04/09 01:41:37;;;;;;;10.77;8.85;;;;;;;7.27;69.19;97308.78;5051938;28;20131;-77
2023/04/09 01:44:07;;;;;;;10.30;8.90;;;;;;;7.26;69.15;97307.16;5052202;28;20049;-77
2023/04/09 01:46:39;;;;;;;10.90;8.93;;;;;;;7.23;69.46;97308.25;5052069;28;20493;-77
2023/04/09 01:49:07;;;;;;;9.20;7.60;;;;;;;7.22;69.31;97304.03;5052141;28;20047;-77
2023/04/09 01:51:35;;;;;;;11.25;8.57;;;;;;;7.21;69.58;97304.16;5052222;28;20409;-77
2023/04/09 01:54:04;;;;;;;10.65;8.30;;;;;;;7.22;69.77;97306.63;5052437;28;20246;-77
2023/04/09 01:56:40;;;;;;;10.80;9.52;;;;;;;7.26;69.39;97296.78;5052583;28;20397;-77
2023/04/09 01:59:07;;;;;;;10.27;8.52;;;;;;;7.31;69.45;97302.34;5052675;28;20492;-77
2023/04/09 02:01:41;;;;;;;12.05;9.77;;;;;;;7.35;69.01;97303.69;5062563;28;20044;-77
2023/04/09 02:04:15;;;;;;;9.98;8.55;;;;;;;7.36;69.80;97305.31;5070968;28;20060;-77
2023/04/09 02:06:48;;;;;;;11.77;8.88;;;;;;;7.38;69.50;97308.59;5063356;28;20048;-77
2023/04/09 02:09:18;;;;;;;10.75;8.85;;;;;;;7.41;69.36;97305.72;5056624;28;20071;-77
2023/04/09 02:11:48;;;;;;;11.40;8.73;;;;;;;7.46;69.26;97301.88;5056298;28;20052;-77
2023/04/09 02:14:16;;;;;;;13.23;10.90;;;;;;;7.49;68.60;97301.59;5055708;28;20055;-78
2023/04/09 02:16:46;;;;;;;9.43;8.32;;;;;;;7.50;69.16;97298.00;5056153;28;20048;-77
2023/04/09 02:19:14;;;;;;;11.40;9.45;;;;;;;7.53;68.29;97297.75;5056099;28;20049;-77
2023/04/09 02:21:43;;;;;;;10.73;8.82;;;;;;;7.52;68.84;97296.94;5055659;28;20052;-76
2023/04/09 02:24:10;;;;;;;10.48;9.00;;;;;;;7.53;68.49;97297.75;5056062;28;20051;-79
2023/04/09 02:26:38;;;;;;;10.65;8.70;;;;;;;7.52;68.57;97296.09;5055745;28;20132;-77
2023/04/09 02:29:05;;;;;;;10.82;8.65;;;;;;;7.51;68.70;97297.06;5056104;28;20056;-77
2023/04/09 02:31:33;;;;;;;10.77;8.85;;;;;;;7.52;68.13;97290.91;5055813;28;20063;-77
2023/04/09 02:34:02;;;;;;;12.80;9.77;;;;;;;7.52;68.26;97294.34;5055861;28;20131;-77
2023/04/09 02:36:29;;;;;;;10.25;8.32;;;;;;;7.52;67.99;97290.91;5055954;28;20049;-77
2023/04/09 02:38:57;;;;;;;11.80;9.13;;;;;;;7.49;68.06;97294.59;5055750;28;20048;-77
2023/04/09 02:41:25;;;;;;;11.63;8.63;;;;;;;7.50;68.24;97287.63;5055179;28;20083;-76
2023/04/09 02:43:52;;;;;;;11.07;9.55;;;;;;;7.48;68.23;97293.00;5055112;28;20503;-77
2023/04/09 02:46:20;;;;;;;11.20;9.00;;;;;;;7.48;68.18;97281.75;5055566;28;20045;-77
2023/04/09 02:48:47;;;;;;;10.55;9.13;;;;;;;7.50;68.21;97288.47;5055516;28;20088;-77
2023/04/09 02:51:16;;;;;;;14.18;10.38;;;;;;;7.45;68.17;97295.84;5055117;28;20094;-77
2023/04/09 02:53:44;;;;;;;11.40;9.85;;;;;;;7.38;68.03;97306.00;5054823;28;20053;-76
2023/04/09 02:56:11;;;;;;;12.07;9.73;;;;;;;7.32;68.18;97303.16;5055502;28;20056;-77
2023/04/09 02:58:39;;;;;;;11.57;9.23;;;;;;;7.26;68.31;97301.97;5055119;28;20514;-77
2023/04/09 03:01:07;;;;;;;11.50;9.00;;;;;;;7.23;69.30;97295.28;5055171;28;20044;-77
2023/04/09 03:03:36;;;;;;;13.25;10.35;;;;;;;7.26;69.32;97304.56;5054717;28;20140;-77
2023/04/09 03:06:04;;;;;;;11.10;9.15;;;;;;;7.28;69.67;97300.06;5054994;28;20049;-77
2023/04/09 03:08:33;;;;;;;11.15;9.05;;;;;;;7.32;70.23;97298.78;5055161;28;20059;-77
2023/04/09 03:11:00;;;;;;;10.43;9.30;;;;;;;7.36;70.20;97296.72;5054707;28;20056;-77
2023/04/09 03:13:28;;;;;;;10.77;8.73;;;;;;;7.38;70.27;97290.44;5053860;28;20044;-77
2023/04/09 03:15:55;;;;;;;13.40;10.20;;;;;;;7.43;70.08;97293.41;5054923;28;20055;-77
2023/04/09 03:18:23;;;;;;;12.02;9.73;;;;;;;7.46;69.90;97294.91;5054791;28;20049;-76
2023/04/09 03:20:51;;;;;;;12.00;10.40;;;;;;;7.49;70.13;97292.00;5054639;28;20052;-77
2023/04/09 03:23:18;;;;;;;11.38;9.05;;;;;;;7.51;69.68;97295.28;5054193;28;20492;-77
2023/04/09 03:25:47;;;;;;;10.98;9.13;;;;;;;7.53;69.52;97295.16;5054792;28;20051;-77
2023/04/09 03:28:14;;;;;;;12.25;9.70;;;;;;;7.52;69.48;97290.91;5054777;28;20049;-77
2023/04/09 03:30:42;;;;;;;11.70;10.13;;;;;;;7.53;69.70;97292.53;5054486;28;20055;-77
2023/04/09 03:33:09;;;;;;;10.65;9.05;;;;;;;7.54;69.97;97281.19;5054126;28;20055;-77
2023/04/09 03:35:37;;;;;;;11.38;9.43;;;;;;;7.53;69.30;97293.34;5054213;28;20061;-76
2023/04/09 03:38:04;;;;;;;12.35;10.35;;;;;;;7.52;69.00;97290.91;5054667;28;20158;-77
2023/04/09 03:40:32;;;;;;;13.35;10.15;;;;;;;7.48;68.37;97289.56;5054387;28;20041;-77
2023/04/09 03:43:03;;;;;;;11.75;9.35;;;;;;;7.38;68.38;97287.03;5054880;28;20057;-79
2023/04/09 03:45:30;;;;;;;13.63;10.25;;;;;;;7.30;68.60;97287.72;5054772;28;20088;-79
2023/04/09 03:47:58;;;;;;;12.65;9.70;;;;;;;7.27;69.24;97292.41;5055045;28;20061;-79
2023/04/09 03:50:26;;;;;;;12.93;10.48;;;;;;;7.23;68.61;97289.28;5054525;28;20052;-79
2023/04/09 03:52:54;;;;;;;12.50;10.65;;;;;;;7.16;67.87;97288.22;5054614;28;20052;-79
2023/04/09 03:55:22;;;;;;;11.98;10.27;;;;;;;7.08;67.80;97288.09;5054833;28;20106;-79
2023/04/09 03:57:50;;;;;;;14.05;11.73;;;;;;;7.05;67.76;97298.78;5054660;28;20088;-80
2023/04/09 04:00:19;;;;;;;14.88;11.90;;;;;;;6.96;67.84;97292.66;5054151;28;20041;-79
2023/04/09 04:02:46;;;;;;;15.00;11.77;;;;;;;6.87;67.72;97290.94;5054579;28;20083;-79
2023/04/09 04:05:15;;;;;;;15.05;12.05;;;;;;;6.77;67.59;97290.94;5054414;28;20063;-79
2023/04/09 04:07:43;;;;;;;16.13;12.48;;;;;;;6.69;67.89;97299.44;5054272;28;20049;-79
2023/04/09 04:10:11;;;;;;;19.60;14.15;;;;;;;6.57;67.91;97301.34;5054102;28;20049;-79
2023/04/09 04:12:40;;;;;;;17.02;12.98;;;;;;;6.47;68.19;97305.75;5054060;28;20045;-79
2023/04/09 04:15:09;;;;;;;18.70;13.65;;;;;;;6.38;68.62;97296.19;5054268;28;20397;-80
2023/04/09 04:17:38;;;;;;;20.63;13.95;;;;;;;6.31;68.63;97298.50;5054126;28;20140;-78
2023/04/09 04:20:07;;;;;;;21.27;14.27;;;;;;;6.26;68.71;97302.50;5054336;28;20049;-79
2023/04/09 04:22:35;;;;;;;18.35;13.18;;;;;;;6.22;68.65;97301.13;5054524;28;20059;-80
2023/04/09 04:25:03;;;;;;;17.73;13.25;;;;;;;6.15;68.68;97296.50;5054400;28;20083;-79
2023/04/09 04:27:31;;;;;;;18.90;13.82;;;;;;;6.10;69.11;97301.28;5054282;28;20252;-79
2023/04/09 04:30:00;;;;;;;16.23;12.18;;;;;;;6.06;69.13;97302.50;5053849;28;20139;-79
2023/04/09 04:32:29;;;;;;;17.60;13.00;;;;;;;6.00;69.46;97312.56;5053925;28;20053;-79
2023/04/09 04:34:58;;;;;;;25.92;17.67;;;;;;;5.93;69.79;97313.09;5054117;28;20049;-80
2023/04/09 04:37:26;;;;;;;23.38;16.13;;;;;;;5.87;69.68;97305.03;5053714;28;20530;-78
2023/04/09 04:39:53;;;;;;;29.52;19.67;;;;;;;5.82;69.52;97307.22;5054195;28;20045;-79
2023/04/09 04:42:22;;;;;;;24.38;15.60;;;;;;;5.77;69.69;97308.44;5053565;28;20045;-79
2023/04/09 04:44:49;;;;;;;23.52;15.13;;;;;;;5.73;69.71;97316.59;5053756;28;20131;-79
2023/04/09 04:47:18;;;;;;;24.10;15.82;;;;;;;5.68;70.07;97309.22;5053692;28;20476;-79
2023/04/09 04:49:45;;;;;;;20.50;14.25;;;;;;;5.65;70.61;97309.50;5053583;28;20049;-79
2023/04/09 04:52:14;;;;;;;18.77;13.80;;;;;;;5.64;70.82;97323.41;5053773;28;20051;-79
2023/04/09 04:54:44;;;;;;;16.25;12.93;;;;;;;5.61;70.54;97313.28;5053293;28;20488;-79
2023/04/09 04:57:11;;;;;;;14.35;10.93;;;;;;;5.61;71.18;97318.47;5053623;28;20055;-81
2023/04/09 04:59:40;;;;;;;22.13;15.20;;;;;;;5.62;70.58;97314.94;5053426;28;20053;-81
2023/04/09 05:02:07;;;;;;;20.38;14.48;;;;;;;5.59;70.92;97312.59;5053272;28;20044;-81
2023/04/09 05:04:35;;;;;;;24.42;16.05;;;;;;;5.54;71.13;97315.59;5053228;28;20053;-79
2023/04/09 05:07:03;;;;;;;28.33;18.60;;;;;;;5.50;70.66;97313.41;5053315;28;20052;-79
2023/04/09 05:09:31;;;;;;;27.67;18.05;;;;;;;5.45;70.89;97316.41;5053806;28;20085;-79
2023/04/09 05:12:00;;;;;;;29.65;18.38;;;;;;;5.39;71.09;97316.91;5054643;28;20056;-80
2023/04/09 05:14:27;;;;;;;19.95;13.95;;;;;;;5.36;71.32;97315.41;5063845;28;20084;-80
2023/04/09 05:16:55;;;;;;;23.25;15.52;;;;;;;5.31;71.15;97315.00;5069156;28;20113;-81
2023/04/09 05:19:23;;;;;;;21.40;14.98;;;;;;;5.29;71.32;97321.22;5062530;28;20049;-79
2023/04/09 05:21:51;;;;;;;30.75;18.35;;;;;;;5.29;71.52;97321.22;5053731;28;20053;-79
2023/04/09 05:24:18;;;;;;;30.88;18.02;;;;;;;5.27;71.67;97321.38;5053289;28;20049;-80
2023/04/09 05:26:47;;;;;;;24.65;16.50;;;;;;;5.26;71.66;97324.91;5053469;28;20060;-82
2023/04/09 05:29:16;;;;;;;23.95;15.23;;;;;;;5.28;72.18;97327.38;5052938;28;20051;-81
2023/04/09 05:31:43;;;;;;;24.20;17.17;;;;;;;5.30;71.97;97318.53;5052948;28;20041;-81
2023/04/09 05:34:11;;;;;;;28.42;19.17;;;;;;;5.31;71.63;97317.59;5052864;28;20056;-81
2023/04/09 05:36:39;;;;;;;23.65;15.80;;;;;;;5.33;71.62;97320.84;5052278;28;20052;-81
2023/04/09 05:39:06;;;;;;;21.33;15.20;;;;;;;5.36;71.93;97320.59;5052782;28;20052;-82
2023/04/09 05:41:36;;;;;;;24.90;17.10;;;;;;;5.36;71.58;97320.59;5052418;28;20045;-81
2023/04/09 05:44:05;;;;;;;21.92;15.48;;;;;;;5.40;71.94;97328.91;5052626;28;20057;-79
2023/04/09 05:46:33;;;;;;;20.25;14.65;;;;;;;5.46;72.40;97328.38;5052835;28;20047;-79
2023/04/09 05:49:01;;;;;;;18.92;13.70;;;;;;;5.51;71.93;97344.34;5053396;28;20084;-80
2023/04/09 05:51:28;;;;;;;18.33;13.52;;;;;;;5.55;71.78;97352.63;5053037;28;20049;-79
2023/04/09 05:53:56;;;;;;;18.25;13.23;;;;;;;5.58;71.55;97347.22;5052880;28;20060;-80
2023/04/09 05:56:23;;;;;;;15.73;11.82;;;;;;;5.64;71.68;97351.88;5052764;28;20044;-79
2023/04/09 05:58:51;;;;;;;16.33;12.15;;;;;;;5.72;71.67;97362.34;5052848;28;20512;-79
2023/04/09 06:01:20;;;;;;;15.45;12.10;;;;;;;5.86;72.04;97353.41;5053196;28;20056;-79
2023/04/09 06:03:48;;;;;;;15.27;11.50;;;;;;;6.00;71.72;97360.00;5053422;28;20060;-79
2023/04/09 06:06:16;;;;;;;14.63;11.85;;;;;;;6.20;70.94;97355.66;5054144;28;20523;-79
2023/04/09 06:08:44;;;;;;;15.77;11.35;;;;;;;6.38;70.29;97358.38;5064250;28;20043;-81
2023/04/09 06:11:12;;;;;;;15.70;12.40;;;;;;;6.52;70.37;97359.75;5075151;28;20033;-80
2023/04/09 06:13:40;;;;;;;12.95;11.00;;;;;;;6.65;69.91;97370.66;5074762;28;20096;-81
2023/04/09 06:16:09;;;;;;;13.60;11.32;;;;;;;6.83;70.10;97365.59;5074462;28;20068;-81
2023/04/09 06:18:38;;;;;;;14.55;11.70;;;;;;;7.00;68.91;97375.25;5074228;28;20049;-80
2023/04/09 06:21:07;;;;;;;15.02;11.90;;;;;;;7.13;67.61;97358.56;5074149;28;20049;-80
2023/04/09 06:23:36;;;;;;;15.18;12.15;;;;;;;7.23;68.12;97356.75;5073294;28;20139;-79
2023/04/09 06:26:03;;;;;;;15.38;11.60;;;;;;;7.30;67.57;97360.41;5072926;28;20056;-80
2023/04/09 06:28:32;;;;;;;16.20;12.38;;;;;;;7.36;66.90;97367.63;5070873;28;20495;-79
2023/04/09 06:31:00;;;;;;;14.77;11.93;;;;;;;7.40;66.14;97368.97;5052981;28;20055;-79
2023/04/09 06:33:28;;;;;;;14.65;11.27;;;;;;;7.48;65.97;97367.44;5052498;28;20049;-79
2023/04/09 06:35:59;;;;;;;14.40;11.75;;;;;;;7.67;66.51;97367.34;5052560;28;20060;-79
2023/04/09 06:38:26;;;;;;;15.75;12.20;;;;;;;7.90;65.73;97372.97;5052325;28;20081;-79
2023/04/09 06:40:55;;;;;;;14.02;11.82;;;;;;;8.08;65.05;97377.38;5052080;28;20049;-79
2023/04/09 06:43:24;;;;;;;13.25;10.85;;;;;;;8.28;64.70;97375.47;5052256;28;20091;-79
2023/04/09 06:45:51;;;;;;;14.95;10.98;;;;;;;8.46;64.02;97381.50;5052423;28;20053;-79
2023/04/09 06:48:19;;;;;;;14.95;11.27;;;;;;;8.65;63.52;97378.75;5053813;28;20049;-80
2023/04/09 06:50:47;;;;;;;14.18;11.77;;;;;;;8.83;62.82;97385.69;5055670;28;20052;-79
2023/04/09 06:53:17;;;;;;;14.85;11.05;;;;;;;8.91;61.31;97377.16;5055730;28;20049;-79
2023/04/09 06:55:45;;;;;;;13.93;11.02;;;;;;;9.03;61.15;97381.97;5055935;28;20059;-79
2023/04/09 06:58:13;;;;;;;14.70;12.32;;;;;;;9.12;60.61;97379.38;5055660;28;20056;-79
2023/04/09 07:00:40;;;;;;;16.50;12.43;;;;;;;9.18;59.76;97382.22;5055626;28;20044;-79
2023/04/09 07:03:08;;;;;;;13.45;11.15;;;;;;;9.23;59.49;97386.97;5055473;28;20052;-79
2023/04/09 07:05:36;;;;;;;14.65;11.70;;;;;;;9.39;60.69;97376.63;5055558;28;20053;-79
2023/04/09 07:08:04;;;;;;;15.63;12.35;;;;;;;9.59;59.26;97385.03;5055187;28;20542;-79
2023/04/09 07:10:33;;;;;;;13.35;11.68;;;;;;;9.70;59.48;97373.50;5055543;28;20080;-79
2023/04/09 07:13:01;;;;;;;14.05;11.20;;;;;;;9.90;59.64;97381.88;5054954;28;20114;-79
2023/04/09 07:15:29;;;;;;;13.50;11.25;;;;;;;10.09;59.34;97379.00;5055148;28;20049;-79
2023/04/09 07:17:56;;;;;;;13.93;12.32;;;;;;;10.25;58.20;97377.41;5055013;28;20049;-79
2023/04/09 07:20:24;;;;;;;14.45;12.38;;;;;;;10.38;57.70;97387.41;5054853;28;20045;-79
2023/04/09 07:22:51;;;;;;;13.77;12.15;;;;;;;10.45;57.35;97376.19;5054793;28;20049;-80
2023/04/09 07:25:20;;;;;;;12.73;11.25;;;;;;;10.51;57.11;97382.53;5055041;28;20052;-79
2023/04/09 07:27:49;;;;;;;14.77;12.55;;;;;;;10.62;56.01;97387.41;5054555;28;20051;-79
2023/04/09 07:30:18;;;;;;;13.13;11.25;;;;;;;10.77;56.31;97387.59;5055086;28;20160;-80
2023/04/09 07:32:46;;;;;;;15.52;12.98;;;;;;;10.90;55.63;97397.53;5054598;28;20060;-79
2023/04/09 07:35:17;;;;;;;13.52;11.50;;;;;;;11.05;56.12;97402.94;5054646;28;20060;-79
2023/04/09 07:37:46;;;;;;;14.70;12.98;;;;;;;11.22;54.80;97404.53;5055159;28;20148;-79
2023/04/09 07:40:14;;;;;;;14.35;12.40;;;;;;;11.34;55.05;97399.75;5055391;28;20055;-79
2023/04/09 07:42:43;;;;;;;14.05;12.57;;;;;;;11.48;54.60;97401.72;5054628;28;20045;-79
2023/04/09 07:45:14;;;;;;;14.38;12.32;;;;;;;11.64;53.85;97397.41;5054434;28;20048;-79
2023/04/09 07:47:44;;;;;;;14.25;12.75;;;;;;;11.85;53.28;97400.28;5054621;28;20489;-79
2023/04/09 07:50:13;;;;;;;14.40;12.63;;;;;;;12.02;52.65;97400.22;5054553;28;20049;-79
2023/04/09 07:52:42;;;;;;;14.95;13.32;;;;;;;12.13;52.23;97394.59;5054311;28;20045;-79
2023/04/09 07:55:10;;;;;;;14.55;12.98;;;;;;;12.28;52.02;97392.88;5054647;28;20444;-79
2023/04/09 07:57:39;;;;;;;13.90;12.45;;;;;;;12.48;51.52;97398.47;5054136;28;20516;-80
2023/04/09 08:00:09;;;;;;;14.98;13.45;;;;;;;13.00;50.73;97407.41;5053974;28;20049;-79
2023/04/09 08:02:40;;;;;;;13.55;12.10;;;;;;;14.66;47.43;97406.16;5054265;28;20055;-79
2023/04/09 08:05:10;;;;;;;14.55;12.95;;;;;;;15.71;44.40;97406.31;5054726;28;20432;-79
2023/04/09 08:07:39;;;;;;;13.93;11.30;;;;;;;16.98;41.89;97397.00;5055166;28;20056;-79
2023/04/09 08:10:13;;;;;;;14.68;11.95;;;;;;;18.07;38.82;97401.66;5054987;28;20055;-79
2023/04/09 08:12:44;;;;;;;12.15;10.95;;;;;;;19.03;37.49;97399.09;5054552;28;20048;-79
2023/04/09 08:15:16;;;;;;;11.95;10.85;;;;;;;19.81;35.63;97395.09;5054990;28;20134;-79
2023/04/09 08:17:46;;;;;;;12.13;10.93;;;;;;;19.49;35.20;97400.50;5054760;28;20327;-79
2023/04/09 08:20:28;;;;;;;12.40;11.20;;;;;;;20.08;34.69;97395.59;5054481;28;20057;-79
2023/04/09 08:22:56;;;;;;;12.48;11.18;;;;;;;20.97;33.43;97393.16;5054301;28;20056;-79
2023/04/09 08:25:24;;;;;;;10.85;9.75;;;;;;;21.66;32.42;97392.59;5054388;28;20044;-80
2023/04/09 08:27:52;;;;;;;11.60;10.55;;;;;;;22.21;31.20;97392.94;5071238;28;20080;-81
2023/04/09 08:30:20;;;;;;;11.02;9.93;;;;;;;22.76;30.67;97385.41;5073647;28;20045;-81
2023/04/09 08:32:48;;;;;;;11.23;10.18;;;;;;;23.30;29.19;97387.63;5056722;28;20084;-80
2023/04/09 08:35:16;;;;;;;9.82;8.93;;;;;;;23.85;29.01;97400.94;5053416;28;20107;-81
2023/04/09 08:37:44;;;;;;;10.90;9.90;;;;;;;23.83;28.55;97400.38;5054037;28;20049;-80
2023/04/09 08:40:12;;;;;;;10.90;9.80;;;;;;;24.01;28.31;97398.44;5054410;28;20055;-81
2023/04/09 08:42:44;;;;;;;9.80;8.90;;;;;;;23.47;27.14;97398.25;5053413;28;20051;-81
2023/04/09 08:45:12;;;;;;;;;;;;;;;22.02;29.48;97394.16;5054416;28;20057;-81
2023/04/09 08:47:41;;;;;;;10.13;9.13;;;;;;;21.57;30.75;97392.16;5053756;28;20265;-80
2023/04/09 08:50:10;;;;;;;9.05;8.15;;;;;;;20.75;31.89;97387.56;5053505;28;20044;-81
2023/04/09 08:52:38;;;;;;;10.93;9.82;;;;;;;19.95;32.85;97389.44;5053368;28;20045;-81
2023/04/09 08:55:07;;;;;;;10.60;9.50;;;;;;;20.90;31.48;97385.31;5053489;28;20114;-80
2023/04/09 08:57:37;;;;;;;10.13;9.13;;;;;;;20.29;31.39;97399.59;5052990;28;20106;-81
2023/04/09 09:00:06;;;;;;;9.05;8.20;;;;;;;19.58;32.62;97385.94;5052605;28;20049;-81
2023/04/09 09:02:34;;;;;;;10.73;9.68;;;;;;;18.94;33.39;97385.31;5052361;28;20068;-80
2023/04/09 09:05:02;;;;;;;10.10;9.18;;;;;;;19.72;32.69;97395.41;5052502;28;20500;-80
2023/04/09 09:07:31;;;;;;;8.15;7.43;;;;;;;21.47;31.00;97392.75;5052542;28;20521;-80
2023/04/09 09:10:02;;;;;;;7.65;6.95;;;;;;;23.01;28.93;97396.50;5052328;28;20627;-81
2023/04/09 09:12:35;;;;;;;8.38;7.57;;;;;;;23.19;26.62;97392.78;5052546;28;20049;-81
2023/04/09 09:15:03;;;;;;;9.65;8.70;;;;;;;21.64;28.84;97398.13;5053361;28;20075;-80
2023/04/09 09:17:31;;;;;;;8.27;7.47;;;;;;;20.03;30.98;97388.34;5053328;28;20587;-81
2023/04/09 09:19:59;;;;;;;8.02;7.22;;;;;;;18.76;33.51;97387.84;5052781;28;20044;-80
2023/04/09 09:22:26;;;;;;;7.97;7.28;;;;;;;17.91;34.09;97383.66;5052224;28;20494;-80
2023/04/09 09:24:56;;;;;;;7.93;7.13;;;;;;;17.49;35.76;97393.69;5052679;28;20084;-80
2023/04/09 09:27:35;;;;;;;8.25;7.45;;;;;;;18.57;34.96;97387.00;5052115;28;20057;-80
2023/04/09 09:30:04;;;;;;;8.73;7.93;;;;;;;18.30;34.39;97380.03;5052336;28;20127;-81
2023/04/09 09:32:33;;;;;;;7.80;7.10;;;;;;;17.83;35.19;97389.19;5052348;28;20052;-81
2023/04/09 09:35:02;;;;;;;9.85;8.90;;;;;;;19.19;33.06;97389.78;5052217;28;20045;-80
2023/04/09 09:37:31;;;;;;;8.35;7.55;;;;;;;20.83;31.34;97381.13;5052340;28;20420;-80
2023/04/09 09:40:00;;;;;;;7.60;6.82;;;;;;;21.09;29.27;97382.56;5052081;28;20131;-80
2023/04/09 09:42:28;;;;;;;7.82;7.03;;;;;;;21.27;29.24;97382.44;5052997;28;20053;-78
2023/04/09 09:44:56;;;;;;;7.45;6.75;;;;;;;21.40;28.23;97381.38;5054236;28;20049;-78
2023/04/09 09:47:24;;;;;;;8.05;7.25;;;;;;;20.52;28.97;97380.34;5053901;28;20060;-78
2023/04/09 09:49:53;;;;;;;8.13;7.32;;;;;;;19.42;30.47;97381.25;5053489;28;20119;-77
2023/04/09 09:52:25;;;;;;;8.77;7.63;;;;;;;18.72;31.40;97382.22;5052473;28;20139;-78
2023/04/09 09:54:55;;;;;;;7.28;6.57;;;;;;;19.14;31.06;97385.97;5052334;28;20135;-78
2023/04/09 09:57:25;;;;;;;7.32;6.57;;;;;;;18.46;31.29;97373.44;5052240;28;20044;-78
2023/04/09 09:59:58;;;;;;;7.53;6.82;;;;;;;17.78;32.92;97370.50;5052061;28;20480;-78
2023/04/09 10:02:29;;;;;;;6.88;6.18;;;;;;;17.90;32.96;97377.56;5051496;28;20055;-78
2023/04/09 10:05:00;;;;;;;7.63;6.83;;;;;;;18.08;32.51;97358.41;5051666;28;20111;-78
2023/04/09 10:07:30;;;;;;;7.47;6.68;;;;;;;17.64;32.84;97369.72;5052291;28;20086;-77
2023/04/09 10:10:00;;;;;;;7.57;6.88;;;;;;;17.10;33.52;97361.09;5052083;28;20128;-78
2023/04/09 10:12:29;;;;;;;7.85;7.05;;;;;;;17.41;33.48;97352.53;5051756;28;20555;-78
2023/04/09 10:15:03;;;;;;;7.22;6.53;;;;;;;17.27;33.06;97358.84;5051762;28;20405;-78
2023/04/09 10:17:30;;;;;;;7.47;6.70;;;;;;;16.72;33.77;97355.59;5052058;28;20049;-78
2023/04/09 10:20:05;;;;;;;8.25;7.40;;;;;;;16.24;34.14;97359.19;5051652;28;20492;-78
2023/04/09 10:22:35;;;;;;;8.18;6.75;;;;;;;16.16;34.80;97359.34;5053197;28;20136;-78
2023/04/09 10:25:03;;;;;;;6.72;6.05;;;;;;;16.09;35.12;97355.91;5055801;28;20500;-78
2023/04/09 10:27:32;;;;;;;6.80;6.10;;;;;;;15.83;33.76;97365.31;5055902;28;20060;-78
2023/04/09 10:30:01;;;;;;;5.68;5.18;;;;;;;15.47;34.09;97363.69;5055711;28;20140;-78
2023/04/09 10:32:35;;;;;;;5.93;5.32;;;;;;;15.09;33.52;97361.44;5055296;28;20095;-78
2023/04/09 10:35:04;;;;;;;5.82;5.32;;;;;;;14.80;33.96;97350.13;5055578;28;20041;-77
2023/04/09 10:37:31;;;;;;;6.20;5.60;;;;;;;14.67;34.87;97347.41;5055803;28;20075;-77
2023/04/09 10:39:59;;;;;;;6.03;5.43;;;;;;;14.62;35.04;97344.50;5055437;28;20053;-78
2023/04/09 10:42:32;;;;;;;5.57;5.07;;;;;;;14.56;34.83;97342.63;5055054;28;20467;-78
2023/04/09 10:45:10;;;;;;;6.88;5.68;;;;;;;14.76;35.10;97346.25;5055431;28;20060;-78
2023/04/09 10:47:39;;;;;;;6.10;5.50;;;;;;;15.20;35.10;97342.53;5055520;28;20051;-78
2023/04/09 10:50:19;;;;;;;6.63;5.93;;;;;;;15.61;33.09;97343.53;5055629;28;20131;-77
2023/04/09 10:52:47;;;;;;;5.57;5.03;;;;;;;15.60;33.09;97348.00;5055476;28;20485;-78
2023/04/09 10:55:32;;;;;;;5.88;5.28;;;;;;;15.62;33.55;97335.47;5055713;28;20053;-78
2023/04/09 10:58:02;;;;;;;5.70;5.10;;;;;;;16.03;34.06;97337.28;5055323;28;20136;-77
2023/04/09 11:00:30;;;;;;;6.22;5.63;;;;;;;16.28;33.83;97340.16;5055469;28;20056;-78
2023/04/09 11:03:26;;;;;;;5.07;4.53;;;;;;;16.63;33.86;97333.91;5054668;28;20045;-78
2023/04/09 11:05:58;;;;;;;6.65;5.65;;;;;;;16.89;33.12;97339.22;5009171;28;20095;-78
2023/04/09 11:08:28;;;;;;;8.68;7.78;;;;;;;17.10;32.83;97337.38;5055176;28;20050;-78
2023/04/09 11:10:57;;;;;;;6.43;5.82;;;;;;;17.26;32.57;97329.03;5054809;28;20041;-77
2023/04/09 11:13:26;;;;;;;6.30;5.70;;;;;;;17.42;32.02;97334.88;5055081;28;20052;-78
2023/04/09 11:15:55;;;;;;;5.72;5.13;;;;;;;17.53;32.44;97330.78;5055312;28;20045;-78
2023/04/09 11:18:24;;;;;;;6.57;5.82;;;;;;;17.57;30.28;97332.78;5055108;28;20052;-78
2023/04/09 11:20:54;;;;;;;6.30;5.70;;;;;;;17.53;30.91;97339.50;5054766;28;20063;-78
2023/04/09 11:23:23;;;;;;;7.28;6.55;;;;;;;17.45;31.45;97327.38;5054474;28;20052;-78
2023/04/09 11:25:51;;;;;;;6.75;5.97;;;;;;;17.41;32.55;97333.28;5055019;28;20479;-78
2023/04/09 11:28:20;;;;;;;7.15;6.13;;;;;;;17.49;31.62;97319.84;5054824;28;20063;-78
2023/04/09 11:30:50;;;;;;;6.07;5.47;;;;;;;17.56;31.56;97325.09;5054876;28;20048;-78
2023/04/09 11:33:18;;;;;;;7.07;6.38;;;;;;;17.77;30.68;97322.16;5054254;28;20135;-78
2023/04/09 11:35:47;;;;;;;6.43;5.47;;;;;;;17.86;30.58;97309.56;5055501;28;20052;-78
2023/04/09 11:38:14;;;;;;;6.43;5.75;;;;;;;18.02;30.92;97324.94;5057153;28;20106;-78